sensor_id;sensor_type;location;lat;lon;timestamp;P1;durP1;ratioP1;P2;durP2;ratioP2
19754;SDS011;10036;47.812;9.274;2023-04-06T00:00:14;12.45;;;8.65;;
19754;SDS011;10036;47.812;9.274;2023-04-06T00:02:41;13.85;;;9.25;;
19754;SDS011;10036;47.812;9.274;2023-04-06T00:05:08;14.30;;;9.02;;
19754;SDS011;10036;47.812;9.274;2023-04-06T00:07:35;14.23;;;8.93;;
19754;SDS011;10036;47.812;9.274;2023-04-06T00:10:03;12.77;;;9.07;;
19754;SDS011;10036;47.812;9.274;2023-04-06T00:12:30;13.68;;;8.45;;
19754;SDS011;10036;47.812;9.274;2023-04-06T00:14:58;13.63;;;9.05;;
19754;SDS011;10036;47.812;9.274;2023-04-06T00:17:26;13.98;;;8.85;;
19754;SDS011;10036;47.812;9.274;2023-04-06T00:19:53;11.45;;;8.32;;
19754;SDS011;10036;47.812;9.274;2023-04-06T00:22:20;14.40;;;8.02;;
19754;SDS011;10036;47.812;9.274;2023-04-06T00:24:47;12.48;;;8.68;;
19754;SDS011;10036;47.812;9.274;2023-04-06T00:27:14;11.32;;;8.73;;
19754;SDS011;10036;47.812;9.274;2023-04-06T00:29:41;25.38;;;13.43;;
19754;SDS011;10036;47.812;9.274;2023-04-06T00:32:09;25.05;;;13.43;;
19754;SDS011;10036;47.812;9.274;2023-04-06T00:34:36;21.70;;;12.95;;
19754;SDS011;10036;47.812;9.274;2023-04-06T00:37:03;13.35;;;9.15;;
19754;SDS011;10036;47.812;9.274;2023-04-06T00:39:30;11.93;;;7.93;;
19754;SDS011;10036;47.812;9.274;2023-04-06T00:41:57;9.75;;;7.68;;
19754;SDS011;10036;47.812;9.274;2023-04-06T00:44:25;11.77;;;7.88;;
19754;SDS011;10036;47.812;9.274;2023-04-06T00:46:53;12.68;;;8.32;;
19754;SDS011;10036;47.812;9.274;2023-04-06T00:49:21;10.43;;;7.63;;
19754;SDS011;10036;47.812;9.274;2023-04-06T00:51:48;10.65;;;7.57;;
19754;SDS011;10036;47.812;9.274;2023-04-06T00:54:15;13.13;;;8.80;;
19754;SDS011;10036;47.812;9.274;2023-04-06T00:56:42;13.98;;;8.95;;
19754;SDS011;10036;47.812;9.274;2023-04-06T00:59:10;13.43;;;8.65;;
19754;SDS011;10036;47.812;9.274;2023-04-06T01:01:37;11.40;;;8.75;;
19754;SDS011;10036;47.812;9.274;2023-04-06T01:04:04;12.52;;;9.27;;
19754;SDS011;10036;47.812;9.274;2023-04-06T01:06:32;13.07;;;9.38;;
19754;SDS011;10036;47.812;9.274;2023-04-06T01:08:59;13.55;;;9.32;;
19754;SDS011;10036;47.812;9.274;2023-04-06T01:11:26;11.70;;;8.50;;
19754;SDS011;10036;47.812;9.274;2023-04-06T01:13:53;11.37;;;8.43;;
19754;SDS011;10036;47.812;9.274;2023-04-06T01:16:20;10.87;;;8.73;;
19754;SDS011;10036;47.812;9.274;2023-04-06T01:18:47;11.93;;;9.13;;
19754;SDS011;10036;47.812;9.274;2023-04-06T01:21:15;12.23;;;9.05;;
19754;SDS011;10036;47.812;9.274;2023-04-06T01:23:44;11.57;;;8.80;;
19754;SDS011;10036;47.812;9.274;2023-04-06T01:26:11;13.37;;;9.87;;
19754;SDS011;10036;47.812;9.274;2023-04-06T01:28:39;13.73;;;9.25;;
19754;SDS011;10036;47.812;9.274;2023-04-06T01:31:06;14.73;;;10.87;;
19754;SDS011;10036;47.812;9.274;2023-04-06T01:33:34;14.00;;;10.10;;
19754;SDS011;10036;47.812;9.274;2023-04-06T01:36:01;13.95;;;9.30;;
19754;SDS011;10036;47.812;9.274;2023-04-06T01:38:29;12.70;;;9.63;;
19754;SDS011;10036;47.812;9.274;2023-04-06T01:40:57;12.50;;;8.97;;
19754;SDS011;10036;47.812;9.274;2023-04-06T01:43:24;12.17;;;9.00;;
19754;SDS011;10036;47.812;9.274;2023-04-06T01:45:51;16.27;;;9.13;;
19754;SDS011;10036;47.812;9.274;2023-04-06T01:48:18;11.23;;;8.63;;
19754;SDS011;10036;47.812;9.274;2023-04-06T01:50:45;10.93;;;8.47;;
19754;SDS011;10036;47.812;9.274;2023-04-06T01:53:12;13.33;;;9.17;;
19754;SDS011;10036;47.812;9.274;2023-04-06T01:55:39;12.30;;;8.60;;
19754;SDS011;10036;47.812;9.274;2023-04-06T01:58:08;12.70;;;8.87;;
19754;SDS011;10036;47.812;9.274;2023-04-06T02:00:35;13.67;;;8.97;;
19754;SDS011;10036;47.812;9.274;2023-04-06T02:03:02;11.87;;;8.60;;
19754;SDS011;10036;47.812;9.274;2023-04-06T02:05:29;12.60;;;9.13;;
19754;SDS011;10036;47.812;9.274;2023-04-06T02:07:58;12.10;;;8.63;;
19754;SDS011;10036;47.812;9.274;2023-04-06T02:10:25;11.53;;;9.03;;
19754;SDS011;10036;47.812;9.274;2023-04-06T02:12:52;13.37;;;9.27;;
19754;SDS011;10036;47.812;9.274;2023-04-06T02:15:20;16.00;;;9.67;;
19754;SDS011;10036;47.812;9.274;2023-04-06T02:17:47;13.83;;;8.43;;
19754;SDS011;10036;47.812;9.274;2023-04-06T02:20:14;12.63;;;9.00;;
19754;SDS011;10036;47.812;9.274;2023-04-06T02:22:41;11.63;;;9.20;;
19754;SDS011;10036;47.812;9.274;2023-04-06T02:25:08;11.87;;;9.13;;
19754;SDS011;10036;47.812;9.274;2023-04-06T02:27:35;12.17;;;8.27;;
19754;SDS011;10036;47.812;9.274;2023-04-06T02:30:02;11.30;;;8.37;;
19754;SDS011;10036;47.812;9.274;2023-04-06T02:32:31;11.00;;;8.13;;
19754;SDS011;10036;47.812;9.274;2023-04-06T02:34:58;12.97;;;8.83;;
19754;SDS011;10036;47.812;9.274;2023-04-06T02:37:25;13.00;;;8.53;;
19754;SDS011;10036;47.812;9.274;2023-04-06T02:39:52;14.80;;;8.63;;
19754;SDS011;10036;47.812;9.274;2023-04-06T02:42:20;14.53;;;9.47;;
19754;SDS011;10036;47.812;9.274;2023-04-06T02:44:46;22.50;;;12.57;;
19754;SDS011;10036;47.812;9.274;2023-04-06T02:47:13;30.87;;;16.43;;
19754;SDS011;10036;47.812;9.274;2023-04-06T02:49:42;33.47;;;17.70;;
19754;SDS011;10036;47.812;9.274;2023-04-06T02:52:09;20.03;;;13.87;;
19754;SDS011;10036;47.812;9.274;2023-04-06T02:54:35;14.93;;;10.00;;
19754;SDS011;10036;47.812;9.274;2023-04-06T02:57:02;13.50;;;9.03;;
19754;SDS011;10036;47.812;9.274;2023-04-06T02:59:30;14.73;;;9.53;;
19754;SDS011;10036;47.812;9.274;2023-04-06T03:01:57;12.53;;;9.17;;
19754;SDS011;10036;47.812;9.274;2023-04-06T03:04:24;13.57;;;9.20;;
19754;SDS011;10036;47.812;9.274;2023-04-06T03:06:53;13.33;;;9.43;;
19754;SDS011;10036;47.812;9.274;2023-04-06T03:09:21;14.07;;;9.17;;
19754;SDS011;10036;47.812;9.274;2023-04-06T03:11:48;12.53;;;9.00;;
19754;SDS011;10036;47.812;9.274;2023-04-06T03:14:15;12.77;;;8.87;;
19754;SDS011;10036;47.812;9.274;2023-04-06T03:16:46;13.80;;;8.70;;
19754;SDS011;10036;47.812;9.274;2023-04-06T03:19:13;12.13;;;9.20;;
19754;SDS011;10036;47.812;9.274;2023-04-06T03:21:40;15.67;;;9.07;;
19754;SDS011;10036;47.812;9.274;2023-04-06T03:24:09;14.43;;;9.77;;
19754;SDS011;10036;47.812;9.274;2023-04-06T03:26:36;13.40;;;9.30;;
19754;SDS011;10036;47.812;9.274;2023-04-06T03:29:03;14.20;;;9.43;;
19754;SDS011;10036;47.812;9.274;2023-04-06T03:31:30;11.13;;;8.77;;
19754;SDS011;10036;47.812;9.274;2023-04-06T03:33:56;16.30;;;9.23;;
19754;SDS011;10036;47.812;9.274;2023-04-06T03:36:24;12.37;;;9.30;;
19754;SDS011;10036;47.812;9.274;2023-04-06T03:38:51;13.37;;;9.80;;
19754;SDS011;10036;47.812;9.274;2023-04-06T03:41:20;15.87;;;9.77;;
19754;SDS011;10036;47.812;9.274;2023-04-06T03:43:47;13.50;;;9.50;;
19754;SDS011;10036;47.812;9.274;2023-04-06T03:46:14;11.73;;;8.53;;
19754;SDS011;10036;47.812;9.274;2023-04-06T03:48:41;13.23;;;9.00;;
19754;SDS011;10036;47.812;9.274;2023-04-06T03:51:08;14.40;;;9.13;;
19754;SDS011;10036;47.812;9.274;2023-04-06T03:53:35;15.27;;;9.57;;
19754;SDS011;10036;47.812;9.274;2023-04-06T03:56:03;13.37;;;9.40;;
19754;SDS011;10036;47.812;9.274;2023-04-06T03:58:32;13.67;;;9.53;;
19754;SDS011;10036;47.812;9.274;2023-04-06T04:00:59;15.07;;;10.00;;
19754;SDS011;10036;47.812;9.274;2023-04-06T04:03:25;13.00;;;8.77;;
19754;SDS011;10036;47.812;9.274;2023-04-06T04:05:53;14.43;;;9.53;;
19754;SDS011;10036;47.812;9.274;2023-04-06T04:08:21;12.87;;;8.90;;
19754;SDS011;10036;47.812;9.274;2023-04-06T04:10:48;14.03;;;9.67;;
19754;SDS011;10036;47.812;9.274;2023-04-06T04:13:15;12.70;;;9.20;;
19754;SDS011;10036;47.812;9.274;2023-04-06T04:15:43;14.20;;;9.07;;
19754;SDS011;10036;47.812;9.274;2023-04-06T04:18:12;15.50;;;9.27;;
19754;SDS011;10036;47.812;9.274;2023-04-06T04:20:39;14.40;;;9.30;;
19754;SDS011;10036;47.812;9.274;2023-04-06T04:23:06;19.10;;;9.30;;
19754;SDS011;10036;47.812;9.274;2023-04-06T04:25:33;14.40;;;9.83;;
19754;SDS011;10036;47.812;9.274;2023-04-06T04:28:00;15.83;;;9.47;;
19754;SDS011;10036;47.812;9.274;2023-04-06T04:30:27;14.13;;;10.07;;
19754;SDS011;10036;47.812;9.274;2023-04-06T04:32:55;17.20;;;9.93;;
19754;SDS011;10036;47.812;9.274;2023-04-06T04:35:22;16.83;;;9.77;;
19754;SDS011;10036;47.812;9.274;2023-04-06T04:37:49;22.53;;;10.57;;
19754;SDS011;10036;47.812;9.274;2023-04-06T04:40:16;17.17;;;9.77;;
19754;SDS011;10036;47.812;9.274;2023-04-06T04:42:43;14.40;;;9.63;;
19754;SDS011;10036;47.812;9.274;2023-04-06T04:45:10;13.17;;;9.50;;
19754;SDS011;10036;47.812;9.274;2023-04-06T04:47:37;16.63;;;10.10;;
19754;SDS011;10036;47.812;9.274;2023-04-06T04:50:06;15.60;;;9.07;;
19754;SDS011;10036;47.812;9.274;2023-04-06T04:52:34;15.43;;;9.73;;
19754;SDS011;10036;47.812;9.274;2023-04-06T04:55:01;16.87;;;9.43;;
19754;SDS011;10036;47.812;9.274;2023-04-06T04:57:28;16.50;;;9.67;;
19754;SDS011;10036;47.812;9.274;2023-04-06T04:59:55;14.57;;;10.50;;
19754;SDS011;10036;47.812;9.274;2023-04-06T05:02:22;16.10;;;10.30;;
19754;SDS011;10036;47.812;9.274;2023-04-06T05:04:49;14.00;;;10.33;;
19754;SDS011;10036;47.812;9.274;2023-04-06T05:07:17;18.00;;;11.43;;
19754;SDS011;10036;47.812;9.274;2023-04-06T05:09:45;16.27;;;10.77;;
19754;SDS011;10036;47.812;9.274;2023-04-06T05:12:12;17.07;;;9.87;;
19754;SDS011;10036;47.812;9.274;2023-04-06T05:14:39;15.43;;;10.30;;
19754;SDS011;10036;47.812;9.274;2023-04-06T05:17:06;14.87;;;10.00;;
19754;SDS011;10036;47.812;9.274;2023-04-06T05:19:33;16.30;;;9.37;;
19754;SDS011;10036;47.812;9.274;2023-04-06T05:22:00;12.03;;;8.90;;
19754;SDS011;10036;47.812;9.274;2023-04-06T05:24:29;17.50;;;10.37;;
19754;SDS011;10036;47.812;9.274;2023-04-06T05:26:56;16.00;;;9.97;;
19754;SDS011;10036;47.812;9.274;2023-04-06T05:29:23;14.57;;;10.10;;
19754;SDS011;10036;47.812;9.274;2023-04-06T05:31:50;17.37;;;11.00;;
19754;SDS011;10036;47.812;9.274;2023-04-06T05:34:17;14.17;;;10.30;;
19754;SDS011;10036;47.812;9.274;2023-04-06T05:36:44;15.63;;;10.17;;
19754;SDS011;10036;47.812;9.274;2023-04-06T05:39:11;17.57;;;10.20;;
19754;SDS011;10036;47.812;9.274;2023-04-06T05:41:40;15.43;;;10.40;;
19754;SDS011;10036;47.812;9.274;2023-04-06T05:44:07;17.50;;;10.77;;
19754;SDS011;10036;47.812;9.274;2023-04-06T05:46:34;15.17;;;10.47;;
19754;SDS011;10036;47.812;9.274;2023-04-06T05:49:01;17.20;;;10.60;;
19754;SDS011;10036;47.812;9.274;2023-04-06T05:51:28;16.87;;;10.43;;
19754;SDS011;10036;47.812;9.274;2023-04-06T05:53:55;14.70;;;9.67;;
19754;SDS011;10036;47.812;9.274;2023-04-06T05:56:23;14.70;;;10.13;;
19754;SDS011;10036;47.812;9.274;2023-04-06T05:58:51;15.83;;;10.37;;
19754;SDS011;10036;47.812;9.274;2023-04-06T06:01:18;18.40;;;10.77;;
19754;SDS011;10036;47.812;9.274;2023-04-06T06:03:45;18.10;;;11.73;;
19754;SDS011;10036;47.812;9.274;2023-04-06T06:06:12;22.73;;;12.53;;
19754;SDS011;10036;47.812;9.274;2023-04-06T06:08:39;22.67;;;12.33;;
19754;SDS011;10036;47.812;9.274;2023-04-06T06:11:06;19.77;;;12.03;;
19754;SDS011;10036;47.812;9.274;2023-04-06T06:13:33;16.53;;;11.17;;
19754;SDS011;10036;47.812;9.274;2023-04-06T06:16:01;19.10;;;11.77;;
19754;SDS011;10036;47.812;9.274;2023-04-06T06:18:30;15.40;;;10.63;;
19754;SDS011;10036;47.812;9.274;2023-04-06T06:20:57;19.47;;;11.40;;
19754;SDS011;10036;47.812;9.274;2023-04-06T06:23:24;15.67;;;11.23;;
19754;SDS011;10036;47.812;9.274;2023-04-06T06:25:51;15.30;;;10.60;;
19754;SDS011;10036;47.812;9.274;2023-04-06T06:28:18;16.47;;;10.43;;
19754;SDS011;10036;47.812;9.274;2023-04-06T06:30:45;18.17;;;11.00;;
19754;SDS011;10036;47.812;9.274;2023-04-06T06:33:14;17.63;;;11.37;;
19754;SDS011;10036;47.812;9.274;2023-04-06T06:35:42;13.63;;;10.55;;
19754;SDS011;10036;47.812;9.274;2023-04-06T06:38:08;15.10;;;10.57;;
19754;SDS011;10036;47.812;9.274;2023-04-06T06:40:35;15.95;;;10.70;;
19754;SDS011;10036;47.812;9.274;2023-04-06T06:43:03;15.47;;;10.77;;
19754;SDS011;10036;47.812;9.274;2023-04-06T06:45:30;15.33;;;11.07;;
19754;SDS011;10036;47.812;9.274;2023-04-06T06:47:57;17.00;;;10.37;;
19754;SDS011;10036;47.812;9.274;2023-04-06T06:50:25;19.93;;;11.60;;
19754;SDS011;10036;47.812;9.274;2023-04-06T06:52:52;17.40;;;11.13;;
19754;SDS011;10036;47.812;9.274;2023-04-06T06:55:19;15.40;;;10.57;;
19754;SDS011;10036;47.812;9.274;2023-04-06T06:57:46;15.63;;;11.13;;
19754;SDS011;10036;47.812;9.274;2023-04-06T07:00:13;17.77;;;10.77;;
19754;SDS011;10036;47.812;9.274;2023-04-06T07:02:41;14.38;;;10.60;;
19754;SDS011;10036;47.812;9.274;2023-04-06T07:05:08;15.80;;;10.48;;
19754;SDS011;10036;47.812;9.274;2023-04-06T07:07:36;13.82;;;10.50;;
19754;SDS011;10036;47.812;9.274;2023-04-06T07:10:03;17.85;;;11.23;;
19754;SDS011;10036;47.812;9.274;2023-04-06T07:12:31;14.18;;;10.45;;
19754;SDS011;10036;47.812;9.274;2023-04-06T07:14:58;15.98;;;10.88;;
19754;SDS011;10036;47.812;9.274;2023-04-06T07:17:25;13.52;;;9.90;;
19754;SDS011;10036;47.812;9.274;2023-04-06T07:19:52;16.05;;;10.68;;
19754;SDS011;10036;47.812;9.274;2023-04-06T07:22:19;14.98;;;10.40;;
19754;SDS011;10036;47.812;9.274;2023-04-06T07:24:47;15.25;;;9.85;;
19754;SDS011;10036;47.812;9.274;2023-04-06T07:27:14;13.68;;;9.63;;
19754;SDS011;10036;47.812;9.274;2023-04-06T07:29:42;15.15;;;9.63;;
19754;SDS011;10036;47.812;9.274;2023-04-06T07:32:09;13.50;;;9.52;;
19754;SDS011;10036;47.812;9.274;2023-04-06T07:34:36;13.45;;;9.05;;
19754;SDS011;10036;47.812;9.274;2023-04-06T07:37:03;12.25;;;9.48;;
19754;SDS011;10036;47.812;9.274;2023-04-06T07:39:30;12.95;;;9.65;;
19754;SDS011;10036;47.812;9.274;2023-04-06T07:41:58;12.18;;;9.07;;
19754;SDS011;10036;47.812;9.274;2023-04-06T07:44:25;12.77;;;10.00;;
19754;SDS011;10036;47.812;9.274;2023-04-06T07:46:52;13.20;;;10.05;;
19754;SDS011;10036;47.812;9.274;2023-04-06T07:49:19;13.85;;;10.45;;
19754;SDS011;10036;47.812;9.274;2023-04-06T07:51:48;15.27;;;10.27;;
19754;SDS011;10036;47.812;9.274;2023-04-06T07:54:15;11.65;;;9.38;;
19754;SDS011;10036;47.812;9.274;2023-04-06T07:56:41;14.32;;;10.55;;
19754;SDS011;10036;47.812;9.274;2023-04-06T07:59:10;14.90;;;10.88;;
19754;SDS011;10036;47.812;9.274;2023-04-06T08:01:38;13.23;;;10.50;;
19754;SDS011;10036;47.812;9.274;2023-04-06T08:04:05;16.40;;;11.20;;
19754;SDS011;10036;47.812;9.274;2023-04-06T08:06:32;14.88;;;10.75;;
19754;SDS011;10036;47.812;9.274;2023-04-06T08:09:00;14.68;;;11.10;;
19754;SDS011;10036;47.812;9.274;2023-04-06T08:11:26;14.38;;;10.50;;
19754;SDS011;10036;47.812;9.274;2023-04-06T08:13:53;15.52;;;11.65;;
19754;SDS011;10036;47.812;9.274;2023-04-06T08:16:23;18.02;;;10.25;;
19754;SDS011;10036;47.812;9.274;2023-04-06T08:18:50;15.20;;;10.65;;
19754;SDS011;10036;47.812;9.274;2023-04-06T08:21:17;17.98;;;10.75;;
19754;SDS011;10036;47.812;9.274;2023-04-06T08:23:44;13.50;;;9.80;;
19754;SDS011;10036;47.812;9.274;2023-04-06T08:26:11;13.30;;;10.25;;
19754;SDS011;10036;47.812;9.274;2023-04-06T08:28:38;12.90;;;9.80;;
19754;SDS011;10036;47.812;9.274;2023-04-06T08:31:05;12.23;;;9.45;;
19754;SDS011;10036;47.812;9.274;2023-04-06T08:33:34;13.50;;;9.98;;
19754;SDS011;10036;47.812;9.274;2023-04-06T08:36:07;15.60;;;9.55;;
19754;SDS011;10036;47.812;9.274;2023-04-06T08:38:36;12.73;;;9.85;;
19754;SDS011;10036;47.812;9.274;2023-04-06T08:41:09;14.68;;;10.32;;
19754;SDS011;10036;47.812;9.274;2023-04-06T08:43:38;14.52;;;10.65;;
19754;SDS011;10036;47.812;9.274;2023-04-06T08:46:10;13.68;;;10.40;;
19754;SDS011;10036;47.812;9.274;2023-04-06T08:48:40;13.45;;;10.23;;
19754;SDS011;10036;47.812;9.274;2023-04-06T08:51:07;12.15;;;9.52;;
19754;SDS011;10036;47.812;9.274;2023-04-06T08:53:35;14.65;;;10.60;;
19754;SDS011;10036;47.812;9.274;2023-04-06T08:56:02;13.25;;;8.88;;
19754;SDS011;10036;47.812;9.274;2023-04-06T08:58:31;13.57;;;10.10;;
19754;SDS011;10036;47.812;9.274;2023-04-06T09:01:00;13.35;;;10.18;;
19754;SDS011;10036;47.812;9.274;2023-04-06T09:03:29;13.15;;;9.68;;
19754;SDS011;10036;47.812;9.274;2023-04-06T09:05:59;12.15;;;9.30;;
19754;SDS011;10036;47.812;9.274;2023-04-06T09:13:29;13.00;;;9.65;;
19754;SDS011;10036;47.812;9.274;2023-04-06T09:16:00;12.68;;;9.82;;
19754;SDS011;10036;47.812;9.274;2023-04-06T09:18:28;14.18;;;9.95;;
19754;SDS011;10036;47.812;9.274;2023-04-06T09:20:56;13.20;;;9.35;;
19754;SDS011;10036;47.812;9.274;2023-04-06T09:23:26;14.20;;;9.38;;
19754;SDS011;10036;47.812;9.274;2023-04-06T09:26:04;15.70;;;10.10;;
19754;SDS011;10036;47.812;9.274;2023-04-06T09:28:45;14.57;;;9.18;;
19754;SDS011;10036;47.812;9.274;2023-04-06T09:31:13;14.18;;;9.70;;
19754;SDS011;10036;47.812;9.274;2023-04-06T09:33:43;13.40;;;9.45;;
19754;SDS011;10036;47.812;9.274;2023-04-06T09:36:13;12.18;;;8.77;;
19754;SDS011;10036;47.812;9.274;2023-04-06T09:38:51;12.60;;;9.20;;
19754;SDS011;10036;47.812;9.274;2023-04-06T09:41:23;13.93;;;9.45;;
19754;SDS011;10036;47.812;9.274;2023-04-06T09:43:51;11.63;;;9.15;;
19754;SDS011;10036;47.812;9.274;2023-04-06T09:46:20;12.70;;;8.77;;
19754;SDS011;10036;47.812;9.274;2023-04-06T09:48:49;15.38;;;8.75;;
19754;SDS011;10036;47.812;9.274;2023-04-06T09:51:18;11.63;;;8.60;;
19754;SDS011;10036;47.812;9.274;2023-04-06T09:53:47;13.98;;;8.95;;
19754;SDS011;10036;47.812;9.274;2023-04-06T09:56:19;14.43;;;9.90;;
19754;SDS011;10036;47.812;9.274;2023-04-06T09:58:50;18.52;;;9.63;;
19754;SDS011;10036;47.812;9.274;2023-04-06T10:01:22;13.68;;;9.00;;
19754;SDS011;10036;47.812;9.274;2023-04-06T10:03:55;9.77;;;7.90;;
19754;SDS011;10036;47.812;9.274;2023-04-06T10:06:32;11.05;;;7.65;;
19754;SDS011;10036;47.812;9.274;2023-04-06T10:09:02;12.88;;;8.48;;
19754;SDS011;10036;47.812;9.274;2023-04-06T10:11:33;12.65;;;7.57;;
19754;SDS011;10036;47.812;9.274;2023-04-06T10:14:00;12.73;;;8.80;;
19754;SDS011;10036;47.812;9.274;2023-04-06T10:16:28;11.90;;;8.30;;
19754;SDS011;10036;47.812;9.274;2023-04-06T10:18:56;11.20;;;7.90;;
19754;SDS011;10036;47.812;9.274;2023-04-06T10:21:28;11.60;;;7.57;;
19754;SDS011;10036;47.812;9.274;2023-04-06T10:23:59;11.07;;;7.55;;
19754;SDS011;10036;47.812;9.274;2023-04-06T10:26:27;9.43;;;7.45;;
19754;SDS011;10036;47.812;9.274;2023-04-06T10:28:54;12.98;;;7.47;;
19754;SDS011;10036;47.812;9.274;2023-04-06T10:31:28;9.02;;;7.00;;
19754;SDS011;10036;47.812;9.274;2023-04-06T10:33:56;10.40;;;7.63;;
19754;SDS011;10036;47.812;9.274;2023-04-06T10:36:25;11.20;;;7.47;;
19754;SDS011;10036;47.812;9.274;2023-04-06T10:38:54;10.25;;;7.40;;
19754;SDS011;10036;47.812;9.274;2023-04-06T10:41:24;10.95;;;7.55;;
19754;SDS011;10036;47.812;9.274;2023-04-06T10:43:59;13.63;;;8.48;;
19754;SDS011;10036;47.812;9.274;2023-04-06T10:46:28;10.88;;;8.18;;
19754;SDS011;10036;47.812;9.274;2023-04-06T10:48:56;10.80;;;7.72;;
19754;SDS011;10036;47.812;9.274;2023-04-06T10:51:25;9.43;;;7.53;;
19754;SDS011;10036;47.812;9.274;2023-04-06T10:53:54;10.40;;;7.22;;
19754;SDS011;10036;47.812;9.274;2023-04-06T10:56:22;11.02;;;7.38;;
19754;SDS011;10036;47.812;9.274;2023-04-06T10:58:53;10.95;;;7.18;;
19754;SDS011;10036;47.812;9.274;2023-04-06T11:01:22;10.40;;;8.10;;
19754;SDS011;10036;47.812;9.274;2023-04-06T11:03:55;10.43;;;8.07;;
19754;SDS011;10036;47.812;9.274;2023-04-06T11:06:24;9.70;;;6.75;;
19754;SDS011;10036;47.812;9.274;2023-04-06T11:08:54;9.45;;;6.70;;
19754;SDS011;10036;47.812;9.274;2023-04-06T11:11:22;9.23;;;6.43;;
19754;SDS011;10036;47.812;9.274;2023-04-06T11:13:52;7.07;;;5.43;;
19754;SDS011;10036;47.812;9.274;2023-04-06T11:16:20;7.22;;;5.63;;
19754;SDS011;10036;47.812;9.274;2023-04-06T11:18:49;8.80;;;6.18;;
19754;SDS011;10036;47.812;9.274;2023-04-06T11:21:18;8.15;;;5.88;;
19754;SDS011;10036;47.812;9.274;2023-04-06T11:23:45;7.03;;;5.55;;
19754;SDS011;10036;47.812;9.274;2023-04-06T11:26:12;9.20;;;6.80;;
19754;SDS011;10036;47.812;9.274;2023-04-06T11:28:42;8.65;;;6.57;;
19754;SDS011;10036;47.812;9.274;2023-04-06T11:31:09;10.63;;;6.20;;
19754;SDS011;10036;47.812;9.274;2023-04-06T11:33:37;9.60;;;5.82;;
19754;SDS011;10036;47.812;9.274;2023-04-06T11:36:05;7.43;;;5.53;;
19754;SDS011;10036;47.812;9.274;2023-04-06T11:38:32;6.75;;;5.43;;
19754;SDS011;10036;47.812;9.274;2023-04-06T11:41:00;7.75;;;6.30;;
19754;SDS011;10036;47.812;9.274;2023-04-06T11:43:28;7.32;;;6.18;;
19754;SDS011;10036;47.812;9.274;2023-04-06T11:46:01;9.45;;;7.13;;
19754;SDS011;10036;47.812;9.274;2023-04-06T11:48:28;8.20;;;6.25;;
19754;SDS011;10036;47.812;9.274;2023-04-06T11:50:56;8.50;;;6.28;;
19754;SDS011;10036;47.812;9.274;2023-04-06T11:53:25;11.00;;;6.32;;
19754;SDS011;10036;47.812;9.274;2023-04-06T11:55:53;7.40;;;6.10;;
19754;SDS011;10036;47.812;9.274;2023-04-06T11:58:20;9.65;;;6.78;;
19754;SDS011;10036;47.812;9.274;2023-04-06T12:00:47;11.20;;;6.88;;
19754;SDS011;10036;47.812;9.274;2023-04-06T12:03:15;9.50;;;6.22;;
19754;SDS011;10036;47.812;9.274;2023-04-06T12:05:43;8.60;;;6.00;;
19754;SDS011;10036;47.812;9.274;2023-04-06T12:08:10;8.82;;;5.97;;
19754;SDS011;10036;47.812;9.274;2023-04-06T12:10:37;15.98;;;6.18;;
19754;SDS011;10036;47.812;9.274;2023-04-06T12:13:04;9.18;;;5.80;;
19754;SDS011;10036;47.812;9.274;2023-04-06T12:15:31;9.00;;;6.30;;
19754;SDS011;10036;47.812;9.274;2023-04-06T12:17:58;8.95;;;6.15;;
19754;SDS011;10036;47.812;9.274;2023-04-06T12:20:26;8.35;;;6.47;;
19754;SDS011;10036;47.812;9.274;2023-04-06T12:22:53;9.32;;;6.40;;
19754;SDS011;10036;47.812;9.274;2023-04-06T12:25:23;10.02;;;6.43;;
19754;SDS011;10036;47.812;9.274;2023-04-06T12:27:50;11.13;;;6.18;;
19754;SDS011;10036;47.812;9.274;2023-04-06T12:30:17;9.15;;;6.55;;
19754;SDS011;10036;47.812;9.274;2023-04-06T12:32:44;8.75;;;6.28;;
19754;SDS011;10036;47.812;9.274;2023-04-06T12:35:11;7.88;;;6.28;;
19754;SDS011;10036;47.812;9.274;2023-04-06T12:37:42;9.50;;;6.65;;
19754;SDS011;10036;47.812;9.274;2023-04-06T12:40:10;13.10;;;6.30;;
19754;SDS011;10036;47.812;9.274;2023-04-06T12:42:38;8.20;;;6.18;;
19754;SDS011;10036;47.812;9.274;2023-04-06T12:45:07;6.65;;;5.15;;
19754;SDS011;10036;47.812;9.274;2023-04-06T12:47:34;8.23;;;5.85;;
19754;SDS011;10036;47.812;9.274;2023-04-06T12:50:03;7.70;;;5.40;;
19754;SDS011;10036;47.812;9.274;2023-04-06T12:52:31;8.73;;;5.85;;
19754;SDS011;10036;47.812;9.274;2023-04-06T12:55:01;9.40;;;6.10;;
19754;SDS011;10036;47.812;9.274;2023-04-06T12:57:30;9.13;;;6.00;;
19754;SDS011;10036;47.812;9.274;2023-04-06T12:59:57;7.40;;;5.35;;
19754;SDS011;10036;47.812;9.274;2023-04-06T13:02:24;8.13;;;5.38;;
19754;SDS011;10036;47.812;9.274;2023-04-06T13:04:51;8.60;;;5.55;;
19754;SDS011;10036;47.812;9.274;2023-04-06T13:07:18;8.82;;;6.20;;
19754;SDS011;10036;47.812;9.274;2023-04-06T13:09:45;9.43;;;5.50;;
19754;SDS011;10036;47.812;9.274;2023-04-06T13:12:15;11.35;;;7.80;;
19754;SDS011;10036;47.812;9.274;2023-04-06T13:14:42;17.65;;;10.07;;
19754;SDS011;10036;47.812;9.274;2023-04-06T13:17:11;10.80;;;7.05;;
19754;SDS011;10036;47.812;9.274;2023-04-06T13:19:38;7.72;;;5.80;;
19754;SDS011;10036;47.812;9.274;2023-04-06T13:22:05;6.20;;;5.05;;
19754;SDS011;10036;47.812;9.274;2023-04-06T13:24:32;6.30;;;5.15;;
19754;SDS011;10036;47.812;9.274;2023-04-06T13:26:59;11.00;;;6.03;;
19754;SDS011;10036;47.812;9.274;2023-04-06T13:29:28;7.70;;;5.72;;
19754;SDS011;10036;47.812;9.274;2023-04-06T13:31:55;21.40;;;11.55;;
19754;SDS011;10036;47.812;9.274;2023-04-06T13:34:22;9.57;;;6.95;;
19754;SDS011;10036;47.812;9.274;2023-04-06T13:36:49;8.35;;;6.25;;
19754;SDS011;10036;47.812;9.274;2023-04-06T13:39:16;10.15;;;6.20;;
19754;SDS011;10036;47.812;9.274;2023-04-06T13:41:43;8.93;;;5.70;;
19754;SDS011;10036;47.812;9.274;2023-04-06T13:44:10;6.75;;;5.55;;
19754;SDS011;10036;47.812;9.274;2023-04-06T13:46:38;13.35;;;6.70;;
19754;SDS011;10036;47.812;9.274;2023-04-06T13:49:05;9.85;;;6.13;;
19754;SDS011;10036;47.812;9.274;2023-04-06T13:51:32;9.38;;;5.75;;
19754;SDS011;10036;47.812;9.274;2023-04-06T13:54:00;9.82;;;6.43;;
19754;SDS011;10036;47.812;9.274;2023-04-06T13:56:27;9.93;;;5.88;;
19754;SDS011;10036;47.812;9.274;2023-04-06T13:58:54;8.00;;;5.32;;
19754;SDS011;10036;47.812;9.274;2023-04-06T14:01:22;8.13;;;5.40;;
19754;SDS011;10036;47.812;9.274;2023-04-06T14:03:51;14.25;;;6.18;;
19754;SDS011;10036;47.812;9.274;2023-04-06T14:06:18;6.25;;;5.50;;
19754;SDS011;10036;47.812;9.274;2023-04-06T14:08:45;8.93;;;5.63;;
19754;SDS011;10036;47.812;9.274;2023-04-06T14:11:12;8.05;;;5.85;;
19754;SDS011;10036;47.812;9.274;2023-04-06T14:13:39;6.38;;;5.68;;
19754;SDS011;10036;47.812;9.274;2023-04-06T14:16:07;8.77;;;5.65;;
19754;SDS011;10036;47.812;9.274;2023-04-06T14:18:34;8.50;;;5.85;;
19754;SDS011;10036;47.812;9.274;2023-04-06T14:21:03;8.80;;;5.65;;
19754;SDS011;10036;47.812;9.274;2023-04-06T14:23:31;9.00;;;5.95;;
19754;SDS011;10036;47.812;9.274;2023-04-06T14:26:01;8.35;;;5.72;;
19754;SDS011;10036;47.812;9.274;2023-04-06T14:28:29;13.40;;;6.40;;
19754;SDS011;10036;47.812;9.274;2023-04-06T14:30:58;8.18;;;6.20;;
19754;SDS011;10036;47.812;9.274;2023-04-06T14:33:25;10.50;;;6.50;;
19754;SDS011;10036;47.812;9.274;2023-04-06T14:35:52;9.10;;;5.55;;
19754;SDS011;10036;47.812;9.274;2023-04-06T14:38:20;6.85;;;5.60;;
19754;SDS011;10036;47.812;9.274;2023-04-06T14:40:47;9.10;;;5.93;;